createdAt,value
2023-01-29T00:00:49.553Z,102507.94
2023-01-29T00:03:17.134Z,102503.22
2023-01-29T00:05:45.142Z,102495.94
2023-01-29T00:08:12.752Z,102498.25
2023-01-29T00:10:40.607Z,102499.88
2023-01-29T00:13:08.285Z,102489.53
2023-01-29T00:15:35.964Z,102487.56
2023-01-29T00:18:04.958Z,102495.94
2023-01-29T00:20:32.599Z,102495.13
2023-01-29T00:23:00.316Z,102494.31
2023-01-29T00:25:28.062Z,102497.09
2023-01-29T00:27:55.779Z,102488.72
2023-01-29T00:30:23.454Z,102477.53
2023-01-29T00:32:51.388Z,102475.91
2023-01-29T00:35:20.636Z,102478.69
2023-01-29T00:37:48.536Z,102472.59
2023-01-29T00:40:16.637Z,102475.91
2023-01-29T00:42:59.378Z,102470.31
2023-01-29T00:45:27.049Z,102464.72
2023-01-29T00:47:54.767Z,102461.94
2023-01-29T00:50:24.008Z,102450.25
2023-01-29T00:52:53.276Z,102450.25
2023-01-29T00:55:22.133Z,102451.91
2023-01-29T00:57:50.090Z,102445.50
2023-01-29T01:47:15.515Z,102454.16
2023-01-29T01:49:43.175Z,102465.88
2023-01-29T01:52:10.739Z,102461.44
2023-01-29T01:54:38.590Z,102468.66
2023-01-29T01:57:16.015Z,102463.91
2023-01-29T01:59:44.039Z,102458.31
2023-01-29T02:47:37.340Z,102418.63
2023-01-29T02:50:06.019Z,102422.13
2023-01-29T02:52:35.117Z,102426.56
2023-01-29T02:55:06.621Z,102415.72
2023-01-29T02:57:35.171Z,102408.47
2023-01-29T03:46:58.446Z,102380.53
2023-01-29T03:49:28.952Z,102384.44
2023-01-29T03:51:59.649Z,102377.22
2023-01-29T03:54:29.696Z,102367.69
2023-01-29T03:56:58.705Z,102371.63
2023-01-29T03:59:29.604Z,102366.06
2023-01-29T04:46:13.287Z,102285.72
2023-01-29T04:48:44.115Z,102289.34
2023-01-29T04:51:12.179Z,102285.38
2023-01-29T04:53:41.957Z,102289.00
2023-01-29T04:56:10.800Z,102280.63
2023-01-29T04:58:42.218Z,102275.03
2023-01-29T05:45:09.922Z,102296.09
2023-01-29T05:47:38.954Z,102296.09
2023-01-29T05:50:07.004Z,102299.72
2023-01-29T05:52:34.616Z,102301.69
2023-01-29T05:55:02.242Z,102305.31
2023-01-29T05:57:29.831Z,102308.94
2023-01-29T05:59:57.556Z,102312.88
2023-01-29T06:02:25.131Z,102316.19
2023-01-29T06:04:54.108Z,102302.34
2023-01-29T06:07:21.928Z,102316.19
2023-01-29T06:09:49.521Z,102328.19
2023-01-29T06:12:17.112Z,102317.00
2023-01-29T06:14:44.754Z,102332.94
2023-01-29T06:17:12.573Z,102330.16
2023-01-29T06:19:40.304Z,102327.38
2023-01-29T06:22:09.319Z,102339.34
2023-01-29T06:24:36.929Z,102331.28
2023-01-29T06:27:04.643Z,102331.28
2023-01-29T06:29:32.249Z,102328.19
2023-01-29T06:31:59.971Z,102306.13
2023-01-29T06:34:27.844Z,102316.19
2023-01-29T06:36:55.398Z,102311.44
2023-01-29T06:39:24.344Z,102315.03
2023-01-29T06:41:51.892Z,102315.03
2023-01-29T06:44:19.516Z,102335.41
2023-01-29T06:46:47.289Z,102326.22
2023-01-29T06:49:15.088Z,102329.50
2023-01-29T06:51:42.883Z,102331.47
2023-01-29T06:54:10.460Z,102333.44
2023-01-29T06:56:39.412Z,102335.09
2023-01-29T06:59:07.051Z,102338.72
2023-01-29T07:01:36.609Z,102325.88
2023-01-29T07:04:04.551Z,102333.94
2023-01-29T07:06:34.487Z,102313.56
2023-01-29T07:09:02.382Z,102309.94
2023-01-29T07:11:30.227Z,102326.72
2023-01-29T07:13:59.391Z,102321.13
2023-01-29T07:16:27.378Z,102321.13
2023-01-29T07:18:55.049Z,102323.41
2023-01-29T07:21:23.010Z,102320.63
2023-01-29T07:23:50.608Z,102305.03
2023-01-29T07:26:18.205Z,102303.34
2023-01-29T07:28:45.953Z,102308.09
2023-01-29T07:31:15.354Z,102307.81
2023-01-29T07:33:43.945Z,102309.78
2023-01-29T07:36:11.859Z,102331.81
2023-01-29T07:38:39.467Z,102317.00
2023-01-29T07:41:07.091Z,102325.69
2023-01-29T07:43:34.663Z,102312.38
2023-01-29T07:46:02.822Z,102327.38
2023-01-29T07:48:31.806Z,102322.88
2023-01-29T07:50:59.698Z,102321.78
2023-01-29T07:53:28.078Z,102303.34
2023-01-29T07:55:55.902Z,102286.59
2023-01-29T07:58:23.504Z,102279.34
2023-01-29T08:00:51.119Z,102290.53
2023-01-29T08:03:20.012Z,102294.47
2023-01-29T08:05:48.978Z,102292.16
2023-01-29T08:08:16.862Z,102279.34
2023-01-29T08:10:44.412Z,102297.75
2023-01-29T08:13:12.276Z,102288.25
2023-01-29T08:15:40.148Z,102283.50
2023-01-29T08:18:07.758Z,102276.28
2023-01-29T08:20:35.340Z,102276.56
2023-01-29T08:23:04.873Z,102281.00
2023-01-29T08:25:32.563Z,102282.69
2023-01-29T08:28:00.796Z,102273.47
2023-01-29T08:30:29.270Z,102263.41
2023-01-29T08:32:57.285Z,102261.44
2023-01-29T08:35:24.976Z,102265.38
2023-01-29T08:37:55.674Z,102273.78
2023-01-29T08:40:24.594Z,102264.25
2023-01-29T08:42:52.151Z,102264.25
2023-01-29T08:45:19.733Z,102268.72
2023-01-29T08:47:47.668Z,102284.31
2023-01-29T08:50:15.677Z,102292.38
2023-01-29T08:52:43.719Z,102288.44
2023-01-29T08:55:11.486Z,102278.06
2023-01-29T08:57:40.420Z,102282.03
2023-01-29T09:00:09.263Z,102277.59
2023-01-29T09:02:36.940Z,102274.78
2023-01-29T09:05:05.170Z,102273.16
2023-01-29T09:07:32.787Z,102274.78
2023-01-29T09:10:00.534Z,102268.38
2023-01-29T09:12:28.365Z,102257.53
2023-01-29T09:14:57.423Z,102258.66
2023-01-29T09:17:25.017Z,102251.44
2023-01-29T09:19:53.313Z,102258.97
2023-01-29T09:22:20.966Z,102257.84
2023-01-29T09:24:48.773Z,102261.78
2023-01-29T09:27:16.488Z,102269.81
2023-01-29T09:29:44.466Z,102260.34
2023-01-29T09:32:13.511Z,102255.56
2023-01-29T09:34:41.077Z,102255.25
2023-01-29T09:37:08.662Z,102255.56
2023-01-29T09:39:36.235Z,102243.56
2023-01-29T09:42:05.173Z,102245.53
2023-01-29T09:44:36.388Z,102249.97
2023-01-29T09:47:05.002Z,102232.41
2023-01-29T09:49:34.430Z,102225.16
2023-01-29T09:52:02.661Z,102227.94
2023-01-29T09:54:30.882Z,102230.72
2023-01-29T09:56:58.753Z,102226.00
2023-01-29T09:59:27.725Z,102214.81
2023-01-29T10:01:57.264Z,102219.56
2023-01-29T10:04:42.621Z,102211.19
2023-01-29T10:07:21.735Z,102200.00
2023-01-29T10:09:53.326Z,102199.19
2023-01-29T10:12:35.907Z,102198.69
2023-01-29T10:15:05.451Z,102193.94
2023-01-29T10:17:37.888Z,102192.28
2023-01-29T10:20:15.190Z,102180.28
2023-01-29T10:22:53.611Z,102177.78
2023-01-29T10:25:21.481Z,102181.13
2023-01-29T10:27:50.771Z,102173.22
2023-01-29T10:30:21.548Z,102174.88
2023-01-29T10:32:49.422Z,102182.94
2023-01-29T10:35:20.187Z,102189.34
2023-01-29T10:37:47.901Z,102204.34
2023-01-29T10:40:21.275Z,102188.41
2023-01-29T10:42:50.013Z,102182.50
2023-01-29T10:45:19.987Z,102185.28
2023-01-29T10:47:55.393Z,102180.19
2023-01-29T10:50:26.696Z,102169.69
2023-01-29T10:53:09.174Z,102171.31
2023-01-29T10:55:48.262Z,102173.78
2023-01-29T10:58:18.941Z,102153.91
2023-01-29T11:00:46.695Z,102148.31
2023-01-29T11:03:27.051Z,102147.19
2023-01-29T11:05:56.953Z,102144.41
2023-01-29T11:08:27.713Z,102144.41
2023-01-29T11:10:59.894Z,102151.63
2023-01-29T11:13:27.818Z,102136.00
2023-01-29T11:15:55.571Z,102132.69
2023-01-29T11:18:23.202Z,102132.22
2023-01-29T11:21:00.516Z,102125.81
2023-01-29T11:23:28.927Z,102131.41
2023-01-29T11:25:58.287Z,102130.56
2023-01-29T11:28:38.665Z,102117.44
2023-01-29T11:31:16.244Z,102109.03
2023-01-29T11:33:44.122Z,102109.38
2023-01-29T11:36:29.368Z,102103.28
2023-01-29T11:39:06.369Z,102100.16
2023-01-29T11:41:35.320Z,102102.63
2023-01-29T11:44:02.890Z,102089.81
2023-01-29T11:46:30.542Z,102099.31
2023-01-29T11:48:59.474Z,102086.50
2023-01-29T11:51:33.704Z,102093.75
2023-01-29T11:54:01.586Z,102078.66
2023-01-29T11:56:30.281Z,102075.88
2023-01-29T11:58:59.308Z,102073.88
2023-01-29T12:01:31.143Z,102063.53
2023-01-29T12:03:58.729Z,102067.97
2023-01-29T12:06:28.532Z,102062.72
2023-01-29T12:08:58.768Z,102057.13
2023-01-29T12:11:27.166Z,102064.69
2023-01-29T12:13:55.095Z,102050.34
2023-01-29T12:16:24.825Z,102051.34
2023-01-29T12:18:53.565Z,102058.91
2023-01-29T12:21:21.945Z,102059.25
2023-01-29T12:23:51.366Z,102052.84
2023-01-29T12:26:19.552Z,102048.06
2023-01-29T12:28:49.462Z,102050.34
2023-01-29T12:31:20.432Z,102036.09
2023-01-29T12:33:49.865Z,102036.91
2023-01-29T12:36:19.118Z,102028.19
2023-01-29T12:38:46.708Z,102017.03
2023-01-29T12:41:23.447Z,102031.31
2023-01-29T12:43:51.835Z,102017.34
2023-01-29T12:46:19.827Z,102016.69
2023-01-29T12:48:48.762Z,102004.38
2023-01-29T12:51:16.896Z,101987.75
2023-01-29T12:53:45.818Z,101997.13
2023-01-29T12:56:14.298Z,101988.28
2023-01-29T12:58:42.892Z,101986.63
2023-01-29T13:01:12.856Z,101995.50
2023-01-29T13:03:46.139Z,101991.88
2023-01-29T13:06:15.732Z,101993.88
2023-01-29T13:08:44.213Z,101987.13
2023-01-29T13:11:12.772Z,101989.91
2023-01-29T13:13:42.418Z,101995.50
2023-01-29T13:16:11.430Z,101989.91
2023-01-29T13:18:41.460Z,101994.69
2023-01-29T13:21:12.849Z,101992.72
2023-01-29T13:23:43.086Z,101991.56
2023-01-29T13:26:11.894Z,101988.75
2023-01-29T13:28:40.617Z,101985.97
2023-01-29T13:31:11.973Z,101985.97
2023-01-29T13:33:39.554Z,101978.41
2023-01-29T13:36:07.443Z,101979.75
2023-01-29T13:38:36.080Z,101983.03
2023-01-29T13:41:05.845Z,101989.44
2023-01-29T13:43:35.003Z,101985.34
2023-01-29T13:46:03.873Z,101990.09
2023-01-29T13:48:32.468Z,101982.03
2023-01-29T13:51:01.482Z,101978.09
2023-01-29T13:53:29.677Z,101973.66
2023-01-29T13:55:57.223Z,101978.09
2023-01-29T13:58:39.763Z,101966.94
2023-01-29T14:01:08.817Z,101972.00
2023-01-29T14:04:03.708Z,101967.56
2023-01-29T14:06:42.547Z,101958.03
2023-01-29T14:09:28.956Z,101963.63
2023-01-29T14:11:56.658Z,101953.28
2023-01-29T14:14:42.891Z,101952.47
2023-01-29T14:17:11.907Z,101951.31
2023-01-29T14:19:39.549Z,101953.28
2023-01-29T14:22:07.063Z,101955.25
2023-01-29T14:24:34.649Z,101952.13
2023-01-29T14:27:03.360Z,101948.50
2023-01-29T14:29:35.438Z,101949.66
2023-01-29T14:32:09.336Z,101943.59
2023-01-29T14:34:43.670Z,101950.63
2023-01-29T14:37:19.345Z,101949.81
2023-01-29T14:39:48.164Z,101944.22
2023-01-29T14:42:17.983Z,101942.59
2023-01-29T14:44:49.544Z,101933.72
2023-01-29T14:47:20.573Z,101934.84
2023-01-29T14:49:53.814Z,101932.06
2023-01-29T14:52:22.181Z,101922.56
2023-01-29T14:54:49.828Z,101922.56
2023-01-29T14:57:17.971Z,101920.88
2023-01-29T14:59:47.960Z,101926.47
2023-01-29T15:02:16.753Z,101914.47
2023-01-29T15:04:45.053Z,101907.25
2023-01-29T15:07:18.990Z,101907.25
2023-01-29T15:09:47.463Z,101900.38
2023-01-29T15:12:18.112Z,101905.63
2023-01-29T15:14:47.543Z,101889.22
2023-01-29T15:17:19.877Z,101890.38
2023-01-29T15:19:49.030Z,101894.28
2023-01-29T15:22:18.331Z,101891.47
2023-01-29T15:24:46.318Z,101890.84
2023-01-29T15:27:15.156Z,101882.47
2023-01-29T15:29:42.892Z,101882.47
2023-01-29T15:32:11.968Z,101879.34
2023-01-29T15:34:42.714Z,101872.13
2023-01-29T15:40:03.155Z,101863.41
2023-01-29T15:42:31.577Z,101866.19
2023-01-29T15:44:59.207Z,101864.06
2023-01-29T15:47:27.547Z,101859.78
2023-01-29T15:49:55.181Z,101847.31
2023-01-29T15:52:23.927Z,101852.09
2023-01-29T15:54:51.504Z,101852.09
2023-01-29T15:57:25.085Z,101854.53
2023-01-29T15:59:53.453Z,101849.78
2023-01-29T16:02:30.097Z,101848.97
2023-01-29T16:04:57.920Z,101853.06
2023-01-29T16:07:25.541Z,101848.28
2023-01-29T16:09:53.127Z,101843.84
2023-01-29T16:12:20.722Z,101838.78
2023-01-29T16:14:50.121Z,101833.19
2023-01-29T16:17:24.335Z,101838.78
2023-01-29T16:19:58.233Z,101840.44
2023-01-29T16:22:26.229Z,101844.38
2023-01-29T16:24:54.127Z,101841.59
2023-01-29T16:27:21.704Z,101838.78
2023-01-29T16:29:50.751Z,101837.63
2023-01-29T16:32:18.449Z,101829.25
2023-01-29T16:34:47.942Z,101823.66
2023-01-29T16:37:19.922Z,101834.84
2023-01-29T16:39:48.052Z,101825.66
2023-01-29T16:42:22.666Z,101820.38
2023-01-29T16:44:55.490Z,101829.91
2023-01-29T16:47:33.287Z,101817.91
2023-01-29T16:50:02.065Z,101829.91
2023-01-29T16:52:30.356Z,101830.41
2023-01-29T16:55:02.100Z,101842.06
2023-01-29T16:57:31.021Z,101829.25
2023-01-29T17:00:00.397Z,101833.69
2023-01-29T17:02:28.494Z,101835.66
2023-01-29T17:04:57.522Z,101825.31
2023-01-29T17:07:25.087Z,101829.25
2023-01-29T17:09:54.226Z,101821.53
2023-01-29T17:12:22.351Z,101817.09
2023-01-29T17:14:56.150Z,101813.16
2023-01-29T17:17:25.396Z,101813.16
2023-01-29T17:19:53.271Z,101808.22
2023-01-29T17:22:20.892Z,101799.03
2023-01-29T17:24:51.327Z,101793.13
2023-01-29T17:27:19.862Z,101796.72
2023-01-29T17:29:47.491Z,101787.53
2023-01-29T17:32:15.220Z,101788.69
2023-01-29T17:34:44.625Z,101777.00
2023-01-29T17:37:13.597Z,101773.09
2023-01-29T17:39:41.250Z,101769.78
2023-01-29T17:42:09.713Z,101768.63
2023-01-29T17:44:37.312Z,101760.25
2023-01-29T17:47:05.405Z,101764.22
2023-01-29T17:49:33.552Z,101761.41
2023-01-29T17:52:02.704Z,101758.16
2023-01-29T17:54:30.309Z,101742.53
2023-01-29T17:56:58.262Z,101736.97
2023-01-29T17:59:27.626Z,101733.84
2023-01-29T18:01:55.220Z,101729.06
2023-01-29T18:04:22.918Z,101725.47
2023-01-29T18:06:50.836Z,101725.78
2023-01-29T18:09:20.637Z,101725.47
2023-01-29T18:11:48.263Z,101714.78
2023-01-29T18:14:16.127Z,101715.59
2023-01-29T18:16:43.854Z,101705.22
2023-01-29T18:19:13.624Z,101704.41
2023-01-29T18:21:41.230Z,101704.41
2023-01-29T18:24:09.236Z,101701.16
2023-01-29T18:26:38.268Z,101695.56
2023-01-29T18:29:07.581Z,101699.50
2023-01-29T18:31:35.591Z,101697.19
2023-01-29T18:34:03.295Z,101692.28
2023-01-29T18:36:30.975Z,101684.22
2023-01-29T18:38:58.629Z,101688.53
2023-01-29T18:41:26.228Z,101682.44
2023-01-29T18:43:55.351Z,101685.72
2023-01-29T18:46:24.270Z,101686.53
2023-01-29T18:48:51.963Z,101682.44
2023-01-29T18:51:19.730Z,101684.75
2023-01-29T18:53:50.282Z,101688.69
2023-01-29T18:56:18.356Z,101675.88
2023-01-29T18:58:52.037Z,101673.56
2023-01-29T19:01:25.149Z,101679.31
2023-01-29T19:03:53.316Z,101670.44
2023-01-29T19:06:21.205Z,101668.97
2023-01-29T19:08:49.363Z,101670.13
2023-01-29T19:11:17.297Z,101662.56
2023-01-29T19:13:46.048Z,101655.03
2023-01-29T19:18:55.994Z,101645.81
2023-01-29T19:21:24.594Z,101641.88
2023-01-29T19:23:52.292Z,101641.06
2023-01-29T19:26:20.115Z,101635.47
2023-01-29T19:28:47.899Z,101625.59
2023-01-29T19:31:15.699Z,101624.47
2023-01-29T19:33:43.390Z,101617.22
2023-01-29T19:36:13.553Z,101610.00
2023-01-29T19:38:41.383Z,101615.47
2023-01-29T19:41:09.272Z,101603.78
2023-01-29T19:43:38.214Z,101601.00
2023-01-29T19:46:06.144Z,101599.84
2023-01-29T19:48:34.005Z,101601.81
2023-01-29T19:51:02.535Z,101592.81
2023-01-29T19:53:31.643Z,101593.78
2023-01-29T19:55:59.900Z,101589.84
2023-01-29T19:58:27.739Z,101577.03
2023-01-29T20:00:56.341Z,101571.44
2023-01-29T20:03:24.436Z,101570.63
2023-01-29T20:05:52.297Z,101567.50
2023-01-29T20:08:20.834Z,101572.63
2023-01-29T20:10:50.177Z,101565.41
2023-01-29T20:13:18.036Z,101567.03
2023-01-29T20:15:46.616Z,101549.13
2023-01-29T20:18:14.342Z,101549.13
2023-01-29T20:20:42.617Z,101544.19
2023-01-29T20:23:10.338Z,101536.97
2023-01-29T20:25:38.518Z,101537.47
2023-01-29T20:28:07.954Z,101526.31
2023-01-29T20:30:35.639Z,101520.75
2023-01-29T20:33:03.995Z,101526.63
2023-01-29T20:35:31.700Z,101520.22
2023-01-29T20:37:59.438Z,101510.69
2023-01-29T20:40:27.114Z,101501.03
2023-01-29T20:42:54.961Z,101496.75
2023-01-29T20:45:24.030Z,101490.69
2023-01-29T20:47:51.622Z,101494.63
2023-01-29T20:50:19.854Z,101485.72
2023-01-29T20:52:47.697Z,101477.06
2023-01-29T20:55:15.685Z,101489.22
2023-01-29T20:57:43.604Z,101485.25
2023-01-29T21:00:12.619Z,101477.69
2023-01-29T21:02:41.668Z,101467.69
2023-01-29T21:05:09.294Z,101465.72
2023-01-29T21:07:37.061Z,101475.41
2023-01-29T21:10:04.914Z,101457.19
2023-01-29T21:12:32.522Z,101454.88
2023-01-29T21:15:00.148Z,101437.16
2023-01-29T21:17:28.189Z,101437.81
2023-01-29T21:19:57.340Z,101440.63
2023-01-29T21:22:25.538Z,101432.72
2023-01-29T21:24:54.119Z,101433.88
2023-01-29T21:27:22.517Z,101429.91
2023-01-29T21:29:52.967Z,101415.66
2023-01-29T21:32:22.592Z,101414.19
2023-01-29T21:34:53.517Z,101401.38
2023-01-29T21:37:24.588Z,101405.81
2023-01-29T21:39:52.562Z,101403.34
2023-01-29T21:42:37.147Z,101391.34
2023-01-29T21:45:06.385Z,101391.03
2023-01-29T21:47:34.482Z,101396.44
2023-01-29T21:50:02.839Z,101392.50
2023-01-29T21:52:34.349Z,101374.09
2023-01-29T21:55:04.259Z,101366.22
2023-01-29T21:57:35.291Z,101368.34
2023-01-29T22:00:04.497Z,101367.22
2023-01-29T22:02:37.136Z,101361.16
2023-01-29T22:05:18.033Z,101365.91
2023-01-29T22:07:49.232Z,101367.91
2023-01-29T22:10:18.128Z,101363.94
2023-01-29T22:12:47.857Z,101348.81
2023-01-29T22:15:16.796Z,101343.25
2023-01-29T22:17:51.424Z,101344.91
2023-01-29T22:20:20.500Z,101338.50
2023-01-29T22:22:50.436Z,101343.91
2023-01-29T22:25:20.440Z,101331.13
2023-01-29T22:27:48.462Z,101335.53
2023-01-29T22:30:17.084Z,101327.16
2023-01-29T22:32:45.180Z,101299.25
2023-01-29T22:35:13.111Z,101308.78
2023-01-29T22:37:42.820Z,101307.63
2023-01-29T22:40:13.340Z,101301.72
2023-01-29T22:42:41.552Z,101297.31
2023-01-29T22:45:10.428Z,101301.53
2023-01-29T22:47:38.870Z,101300.63
2023-01-29T22:50:07.835Z,101284.53
2023-01-29T22:52:39.600Z,101276.66
2023-01-29T22:55:10.159Z,101261.53
2023-01-29T22:57:39.914Z,101260.84
2023-01-29T23:47:07.203Z,101163.38
2023-01-29T23:49:34.919Z,101164.22
2023-01-29T23:52:02.464Z,101164.09
2023-01-29T23:54:30.229Z,101170.94
2023-01-29T23:56:57.858Z,101170.63
2023-01-29T23:59:33.116Z,101172.25
